createdAt,value
2023-05-04T00:02:18.749Z,6.28
2023-05-04T00:04:45.735Z,5.80
2023-05-04T00:07:12.772Z,5.45
2023-05-04T00:09:39.424Z,5.50
2023-05-04T00:12:07.070Z,6.18
2023-05-04T00:14:33.757Z,6.18
2023-05-04T00:17:00.475Z,5.70
2023-05-04T00:19:27.294Z,5.25
2023-05-04T00:21:53.952Z,5.32
2023-05-04T00:24:20.687Z,5.93
2023-05-04T00:26:47.476Z,6.38
2023-05-04T00:29:14.190Z,5.47
2023-05-04T00:31:41.050Z,5.45
2023-05-04T00:34:07.850Z,5.80
2023-05-04T00:36:35.134Z,6.03
2023-05-04T00:39:01.933Z,6.70
2023-05-04T00:41:28.576Z,6.88
2023-05-04T00:43:55.322Z,5.72
2023-05-04T00:46:22.812Z,6.32
2023-05-04T00:48:50.186Z,5.85
2023-05-04T00:51:19.353Z,5.43
2023-05-04T00:53:46.478Z,5.55
2023-05-04T00:56:14.378Z,4.88
2023-05-04T00:58:41.481Z,6.55
2023-05-04T01:01:08.486Z,5.70
2023-05-04T01:03:35.573Z,6.10
2023-05-04T01:06:45.448Z,6.32
2023-05-04T01:09:21.048Z,5.82
2023-05-04T01:11:57.173Z,6.35
2023-05-04T01:14:25.435Z,6.22
2023-05-04T01:16:58.171Z,5.82
2023-05-04T01:19:27.567Z,5.40
2023-05-04T01:21:54.283Z,6.65
2023-05-04T01:24:21.248Z,6.03
2023-05-04T01:26:52.979Z,5.35
2023-05-04T01:29:27.780Z,5.43
2023-05-04T01:31:56.046Z,5.78
2023-05-04T01:34:23.308Z,5.93
2023-05-04T01:36:50.755Z,5.32
2023-05-04T01:39:17.404Z,5.90
2023-05-04T01:41:44.096Z,7.35
2023-05-04T01:44:11.252Z,6.60
2023-05-04T01:46:38.470Z,6.03
2023-05-04T01:49:05.250Z,6.57
2023-05-04T01:51:31.983Z,5.85
2023-05-04T01:53:58.671Z,5.60
2023-05-04T01:56:25.415Z,5.80
2023-05-04T01:58:52.210Z,6.63
2023-05-04T02:01:18.914Z,6.47
2023-05-04T02:03:45.767Z,6.13
2023-05-04T02:06:12.500Z,6.35
2023-05-04T02:08:39.668Z,5.65
2023-05-04T02:11:06.427Z,6.65
2023-05-04T02:13:33.223Z,6.70
2023-05-04T02:15:59.961Z,6.35
2023-05-04T02:18:26.789Z,6.72
2023-05-04T02:20:53.587Z,6.72
2023-05-04T02:23:20.312Z,7.45
2023-05-04T02:25:47.013Z,5.90
2023-05-04T02:28:13.608Z,6.97
2023-05-04T02:30:41.691Z,6.82
2023-05-04T02:33:08.814Z,7.10
2023-05-04T02:35:35.672Z,6.78
2023-05-04T02:38:02.408Z,6.97
2023-05-04T02:40:29.048Z,8.15
2023-05-04T02:42:56.169Z,6.45
2023-05-04T02:45:22.813Z,7.10
2023-05-04T02:47:49.590Z,6.70
2023-05-04T02:50:16.270Z,5.80
2023-05-04T02:52:43.131Z,5.97
2023-05-04T02:55:10.170Z,6.55
2023-05-04T02:57:36.901Z,6.28
2023-05-04T03:00:05.882Z,7.40
2023-05-04T03:02:33.055Z,6.55
2023-05-04T03:04:59.844Z,7.70
2023-05-04T03:07:26.880Z,6.45
2023-05-04T03:09:53.637Z,7.60
2023-05-04T03:12:20.492Z,10.27
2023-05-04T03:14:47.177Z,7.47
2023-05-04T03:17:13.953Z,7.43
2023-05-04T03:19:40.576Z,7.90
2023-05-04T03:22:07.432Z,7.45
2023-05-04T03:24:34.125Z,6.55
2023-05-04T03:27:00.825Z,6.38
2023-05-04T03:29:27.587Z,6.55
2023-05-04T03:31:54.443Z,7.82
2023-05-04T03:34:21.771Z,6.90
2023-05-04T03:36:49.109Z,7.18
2023-05-04T03:39:17.856Z,6.32
2023-05-04T03:41:44.749Z,6.18
2023-05-04T03:44:11.382Z,6.40
2023-05-04T03:46:38.259Z,6.75
2023-05-04T03:49:05.076Z,7.20
2023-05-04T03:51:31.743Z,7.82
2023-05-04T03:53:58.388Z,8.15
2023-05-04T03:56:25.038Z,7.75
2023-05-04T03:58:51.636Z,7.40
2023-05-04T04:01:18.497Z,7.05
2023-05-04T04:03:45.399Z,8.82
2023-05-04T04:06:13.439Z,8.65
2023-05-04T04:08:40.255Z,10.82
2023-05-04T04:11:06.967Z,9.32
2023-05-04T04:13:33.700Z,9.65
2023-05-04T04:16:00.539Z,8.95
2023-05-04T04:18:27.452Z,11.23
2023-05-04T04:20:54.184Z,8.85
2023-05-04T04:23:21.919Z,8.25
2023-05-04T04:25:48.885Z,9.63
2023-05-04T04:28:16.249Z,8.48
2023-05-04T04:30:43.084Z,8.80
2023-05-04T04:33:10.321Z,8.30
2023-05-04T04:35:37.435Z,7.95
2023-05-04T04:38:04.372Z,9.60
2023-05-04T04:40:31.277Z,9.48
2023-05-04T04:42:57.997Z,9.43
2023-05-04T04:45:24.894Z,9.70
2023-05-04T04:47:51.776Z,8.00
2023-05-04T04:50:19.405Z,10.63
2023-05-04T04:52:46.541Z,9.38
2023-05-04T04:55:15.451Z,8.45
2023-05-04T04:57:42.205Z,12.90
2023-05-04T05:00:14.406Z,11.98
2023-05-04T05:02:41.376Z,11.57
2023-05-04T05:05:08.698Z,9.40
2023-05-04T05:07:36.500Z,11.07
2023-05-04T05:10:03.654Z,12.60
2023-05-04T05:12:31.138Z,8.85
2023-05-04T05:14:57.941Z,13.57
2023-05-04T05:17:24.824Z,12.32
2023-05-04T05:19:51.633Z,11.23
2023-05-04T05:22:18.409Z,11.00
2023-05-04T05:24:45.051Z,11.50
2023-05-04T05:27:11.844Z,11.63
2023-05-04T05:29:38.740Z,11.82
2023-05-04T05:32:05.852Z,12.02
2023-05-04T05:34:33.009Z,11.07
2023-05-04T05:36:59.810Z,10.95
2023-05-04T05:39:26.491Z,10.80
2023-05-04T05:41:57.376Z,10.75
2023-05-04T05:44:24.588Z,12.00
2023-05-04T05:46:51.408Z,14.07
2023-05-04T05:49:18.248Z,12.18
2023-05-04T05:51:44.884Z,12.13
2023-05-04T05:54:11.555Z,13.25
2023-05-04T05:56:38.167Z,14.80
2023-05-04T05:59:04.840Z,11.95
2023-05-04T06:01:32.044Z,12.68
2023-05-04T06:03:59.023Z,10.73
2023-05-04T06:06:25.788Z,12.13
2023-05-04T06:08:52.465Z,13.73
2023-05-04T06:11:19.209Z,12.25
2023-05-04T06:13:46.319Z,11.38
2023-05-04T06:16:13.072Z,12.40
2023-05-04T06:18:39.799Z,9.80
2023-05-04T06:21:06.440Z,10.50
2023-05-04T06:23:34.456Z,10.43
2023-05-04T06:26:01.161Z,11.20
2023-05-04T06:28:27.874Z,10.07
2023-05-04T06:30:54.581Z,10.60
2023-05-04T06:33:21.266Z,10.63
2023-05-04T06:35:48.135Z,8.15
2023-05-04T06:38:14.845Z,7.95
2023-05-04T06:40:41.766Z,11.13
2023-05-04T06:43:08.425Z,11.10
2023-05-04T06:45:35.951Z,10.13
2023-05-04T06:48:03.672Z,11.07
2023-05-04T06:50:30.917Z,11.38
2023-05-04T06:53:05.223Z,14.82
2023-05-04T06:55:31.973Z,10.43
2023-05-04T06:57:58.829Z,10.27
2023-05-04T07:00:26.178Z,12.93
2023-05-04T07:02:54.063Z,8.93
2023-05-04T07:05:22.313Z,12.20
2023-05-04T07:07:51.283Z,9.73
2023-05-04T07:10:19.634Z,9.20
2023-05-04T07:12:47.049Z,9.27
2023-05-04T07:15:14.111Z,9.55
2023-05-04T07:17:41.161Z,9.88
2023-05-04T07:20:08.593Z,9.65
2023-05-04T07:22:37.950Z,8.10
2023-05-04T07:25:05.008Z,7.63
2023-05-04T07:27:31.835Z,10.77
2023-05-04T07:29:58.518Z,9.55
2023-05-04T07:32:25.334Z,10.07
2023-05-04T07:34:52.135Z,8.10
2023-05-04T07:37:19.177Z,10.77
2023-05-04T07:39:46.070Z,10.10
2023-05-04T07:42:12.939Z,8.45
2023-05-04T07:44:41.378Z,8.32
2023-05-04T07:47:08.891Z,8.45
2023-05-04T07:49:35.715Z,7.53
2023-05-04T07:52:04.284Z,8.43
2023-05-04T07:54:31.410Z,8.82
2023-05-04T07:56:58.094Z,9.00
2023-05-04T07:59:24.750Z,11.35
2023-05-04T08:01:51.482Z,8.02
2023-05-04T08:04:18.163Z,8.80
2023-05-04T08:06:45.529Z,7.35
2023-05-04T08:09:12.654Z,7.93
2023-05-04T08:11:42.703Z,9.70
2023-05-04T08:14:09.633Z,9.27
2023-05-04T08:16:36.478Z,8.55
2023-05-04T08:19:03.399Z,10.35
2023-05-04T08:21:30.473Z,9.07
2023-05-04T08:23:57.425Z,8.82
2023-05-04T08:26:24.606Z,8.73
2023-05-04T08:28:51.481Z,7.72
2023-05-04T08:31:18.739Z,10.65
2023-05-04T08:33:48.541Z,9.32
2023-05-04T08:36:15.608Z,8.10
2023-05-04T08:38:42.384Z,6.80
2023-05-04T08:41:11.120Z,7.15
2023-05-04T08:43:37.963Z,6.10
2023-05-04T08:46:06.763Z,8.13
2023-05-04T08:48:34.963Z,7.93
2023-05-04T08:51:03.605Z,7.82
2023-05-04T08:53:31.672Z,7.60
2023-05-04T08:56:04.047Z,8.45
2023-05-04T08:58:31.976Z,5.82
2023-05-04T09:01:01.373Z,6.50
2023-05-04T09:03:29.674Z,6.57
2023-05-04T09:05:57.296Z,6.47
2023-05-04T09:08:24.135Z,8.07
2023-05-04T09:10:50.899Z,7.57
2023-05-04T09:13:18.072Z,7.15
2023-05-04T09:15:54.718Z,6.50
2023-05-04T09:18:21.555Z,7.78
2023-05-04T09:20:48.216Z,5.35
2023-05-04T09:23:17.999Z,7.47
2023-05-04T09:25:48.771Z,8.52
2023-05-04T09:28:16.499Z,6.78
2023-05-04T09:30:43.829Z,7.57
2023-05-04T09:33:13.555Z,7.95
2023-05-04T09:35:42.107Z,8.55
2023-05-04T09:38:09.512Z,7.72
2023-05-04T09:40:39.106Z,6.18
2023-05-04T09:43:06.813Z,8.75
2023-05-04T09:45:46.430Z,6.93
2023-05-04T09:48:17.454Z,6.47
2023-05-04T09:50:54.681Z,9.90
2023-05-04T09:53:24.920Z,6.10
2023-05-04T09:56:29.966Z,8.63
2023-05-04T09:59:00.010Z,8.60
2023-05-04T10:01:30.038Z,6.90
2023-05-04T10:03:57.096Z,7.43
2023-05-04T10:06:24.712Z,7.65
2023-05-04T10:08:52.165Z,6.72
2023-05-04T10:11:20.817Z,9.07
2023-05-04T10:13:49.280Z,8.00
2023-05-04T10:16:38.636Z,7.68
2023-05-04T10:19:22.195Z,5.70
2023-05-04T10:21:57.383Z,7.18
2023-05-04T10:25:02.951Z,5.80
2023-05-04T10:28:01.608Z,5.65
2023-05-04T10:30:28.526Z,8.57
2023-05-04T10:32:57.405Z,6.40
2023-05-04T10:35:24.973Z,8.75
2023-05-04T10:37:56.208Z,7.25
2023-05-04T10:40:39.457Z,6.05
2023-05-04T10:43:11.676Z,7.65
2023-05-04T10:45:42.022Z,8.05
2023-05-04T10:48:09.430Z,8.23
2023-05-04T10:50:46.366Z,5.90
2023-05-04T10:53:14.717Z,7.95
2023-05-04T10:55:48.838Z,6.80
2023-05-04T10:58:19.221Z,8.27
2023-05-04T11:00:47.205Z,7.00
2023-05-04T11:03:14.435Z,6.07
2023-05-04T11:05:47.070Z,9.27
2023-05-04T11:08:24.842Z,7.30
2023-05-04T11:11:02.903Z,8.30
2023-05-04T11:15:58.723Z,7.53
2023-05-04T11:18:35.547Z,7.55
2023-05-04T11:21:02.653Z,5.95
2023-05-04T11:23:29.887Z,7.68
2023-05-04T11:25:56.719Z,7.07
2023-05-04T11:28:36.652Z,7.07
2023-05-04T11:31:17.148Z,8.40
2023-05-04T11:33:52.505Z,7.03
2023-05-04T11:36:20.454Z,7.88
2023-05-04T11:38:47.623Z,8.32
2023-05-04T11:41:14.531Z,9.05
2023-05-04T11:43:44.323Z,7.00
2023-05-04T11:46:11.514Z,8.73
2023-05-04T11:48:39.592Z,8.35
2023-05-04T11:51:06.762Z,5.38
2023-05-04T11:53:37.645Z,6.22
2023-05-04T11:56:04.841Z,10.25
2023-05-04T11:58:31.902Z,9.43
2023-05-04T12:00:59.033Z,7.88
2023-05-04T12:03:43.904Z,8.27
2023-05-04T12:06:18.664Z,9.93
2023-05-04T12:08:45.510Z,7.05
2023-05-04T12:11:25.656Z,6.03
2023-05-04T12:14:07.093Z,5.63
2023-05-04T12:16:34.452Z,6.05
2023-05-04T12:19:11.306Z,4.97
2023-05-04T12:21:49.826Z,7.78
2023-05-04T12:24:16.444Z,8.27
2023-05-04T12:26:43.317Z,7.53
2023-05-04T12:29:09.990Z,9.23
2023-05-04T12:31:36.638Z,7.78
2023-05-04T12:34:03.303Z,7.47
2023-05-04T12:36:29.917Z,7.35
2023-05-04T12:38:56.690Z,7.90
2023-05-04T12:41:23.447Z,7.90
2023-05-04T12:43:50.273Z,10.40
2023-05-04T12:46:21.549Z,7.30
2023-05-04T12:48:48.628Z,7.07
2023-05-04T12:51:15.283Z,8.38
2023-05-04T12:53:42.452Z,6.28
2023-05-04T12:56:09.245Z,6.40
2023-05-04T12:58:35.823Z,6.90
2023-05-04T13:01:03.545Z,9.48
2023-05-04T13:03:30.439Z,8.80
2023-05-04T13:05:57.754Z,8.48
2023-05-04T13:08:25.010Z,6.82
2023-05-04T13:10:52.231Z,6.90
2023-05-04T13:13:19.375Z,5.68
2023-05-04T13:15:50.591Z,8.05
2023-05-04T13:18:17.657Z,7.30
2023-05-04T13:20:44.362Z,7.00
2023-05-04T13:23:11.180Z,7.90
2023-05-04T13:25:37.831Z,5.95
2023-05-04T13:28:04.574Z,6.05
2023-05-04T13:30:31.325Z,7.00
2023-05-04T13:32:58.140Z,8.15
2023-05-04T13:35:27.900Z,7.40
2023-05-04T13:37:54.537Z,8.52
2023-05-04T13:40:21.377Z,8.25
2023-05-04T13:42:48.217Z,6.05
2023-05-04T13:45:15.094Z,7.25
2023-05-04T13:47:41.956Z,5.28
2023-05-04T13:50:09.057Z,5.53
2023-05-04T13:52:36.998Z,6.93
2023-05-04T13:55:04.686Z,8.60
2023-05-04T13:57:31.701Z,7.68
2023-05-04T14:00:06.942Z,6.78
2023-05-04T14:02:35.341Z,7.10
2023-05-04T14:05:04.165Z,7.28
2023-05-04T14:07:31.375Z,7.18
2023-05-04T14:09:59.130Z,7.47
2023-05-04T14:12:25.919Z,8.23
2023-05-04T14:14:52.790Z,6.10
2023-05-04T14:17:19.521Z,4.43
2023-05-04T14:19:46.291Z,6.75
2023-05-04T14:22:12.936Z,7.57
2023-05-04T14:24:39.641Z,6.75
2023-05-04T14:27:06.417Z,5.57
2023-05-04T14:29:34.384Z,8.68
2023-05-04T14:32:01.158Z,6.32
2023-05-04T14:34:31.098Z,5.68
2023-05-04T14:36:58.024Z,8.50
2023-05-04T14:39:24.972Z,5.97
2023-05-04T14:41:53.155Z,5.32
2023-05-04T14:44:22.609Z,7.25
2023-05-04T14:46:49.337Z,5.35
2023-05-04T14:49:24.899Z,7.20
2023-05-04T14:52:02.149Z,6.57
2023-05-04T14:54:28.883Z,7.80
2023-05-04T14:56:55.617Z,6.30
2023-05-04T14:59:22.256Z,6.55
2023-05-04T15:01:49.074Z,7.15
2023-05-04T15:04:17.222Z,7.95
2023-05-04T15:06:45.699Z,5.63
2023-05-04T15:09:13.114Z,6.47
2023-05-04T15:11:39.815Z,5.97
2023-05-04T15:14:06.595Z,5.68
2023-05-04T15:16:33.530Z,4.30
2023-05-04T15:19:00.780Z,4.55
2023-05-04T15:21:28.436Z,4.50
2023-05-04T15:24:00.214Z,6.10
2023-05-04T15:26:34.556Z,4.15
2023-05-04T15:29:02.156Z,4.57
2023-05-04T15:31:29.000Z,4.22
2023-05-04T15:33:55.975Z,5.30
2023-05-04T15:36:24.461Z,5.30
2023-05-04T15:38:51.244Z,4.57
2023-05-04T15:41:17.995Z,4.50
2023-05-04T15:43:44.996Z,4.00
2023-05-04T15:46:11.840Z,3.80
2023-05-04T15:48:38.743Z,4.25
2023-05-04T15:51:12.152Z,3.33
2023-05-04T15:53:39.486Z,3.45
2023-05-04T15:56:06.678Z,3.70
2023-05-04T15:58:33.634Z,4.20
2023-05-04T16:01:03.955Z,3.60
2023-05-04T16:03:32.016Z,3.83
2023-05-04T16:05:58.865Z,3.20
2023-05-04T16:08:26.170Z,3.60
2023-05-04T16:10:57.825Z,4.05
2023-05-04T16:15:51.936Z,3.28
2023-05-04T16:18:18.640Z,3.60
2023-05-04T16:20:46.123Z,3.28
2023-05-04T16:23:17.759Z,3.60
2023-05-04T16:28:11.521Z,4.50
2023-05-04T16:30:38.257Z,4.13
2023-05-04T16:33:05.027Z,4.05
2023-05-04T16:35:31.921Z,2.30
2023-05-04T16:37:59.109Z,3.70
2023-05-04T16:40:26.626Z,3.85
2023-05-04T16:42:53.332Z,2.90
2023-05-04T16:45:20.586Z,3.90
2023-05-04T16:47:47.338Z,3.17
2023-05-04T16:50:14.531Z,3.00
2023-05-04T16:52:41.669Z,4.63
2023-05-04T16:55:11.888Z,4.85
2023-05-04T16:57:39.279Z,4.97
2023-05-04T17:00:07.422Z,6.20
2023-05-04T17:02:35.026Z,6.40
2023-05-04T17:05:01.874Z,4.18
2023-05-04T17:07:28.802Z,6.82
2023-05-04T17:09:55.429Z,6.75
2023-05-04T17:12:23.436Z,5.65
2023-05-04T17:14:50.209Z,4.78
2023-05-04T17:17:16.809Z,5.28
2023-05-04T17:19:43.450Z,4.80
2023-05-04T17:22:11.343Z,6.10
2023-05-04T17:24:38.178Z,4.05
2023-05-04T17:27:05.073Z,5.68
2023-05-04T17:29:31.851Z,5.80
2023-05-04T17:31:58.655Z,5.05
2023-05-04T17:34:25.448Z,5.25
2023-05-04T17:36:52.094Z,5.32
2023-05-04T17:39:18.908Z,5.00
2023-05-04T17:41:48.806Z,4.63
2023-05-04T17:44:18.960Z,6.03
2023-05-04T17:46:45.694Z,3.65
2023-05-04T17:49:12.686Z,4.60
2023-05-04T17:51:40.197Z,5.00
2023-05-04T17:54:06.837Z,5.03
2023-05-04T17:56:33.505Z,4.90
2023-05-04T17:59:00.172Z,5.32
2023-05-04T18:01:26.946Z,4.60
2023-05-04T18:03:53.796Z,3.88
2023-05-04T18:06:20.931Z,4.72
2023-05-04T18:08:48.488Z,4.35
2023-05-04T18:11:15.311Z,4.40
2023-05-04T18:13:42.385Z,4.05
2023-05-04T18:16:09.290Z,6.43
2023-05-04T18:18:36.145Z,5.93
2023-05-04T18:21:03.102Z,5.13
2023-05-04T18:23:30.403Z,3.92
2023-05-04T18:25:57.137Z,6.00
2023-05-04T18:28:23.775Z,5.93
2023-05-04T18:30:50.403Z,4.97
2023-05-04T18:33:17.249Z,5.13
2023-05-04T18:35:43.957Z,4.53
2023-05-04T18:38:10.711Z,4.72
2023-05-04T18:40:37.354Z,4.95
2023-05-04T18:43:04.138Z,8.25
2023-05-04T18:45:30.948Z,3.63
2023-05-04T18:47:57.648Z,5.50
2023-05-04T18:50:24.468Z,5.03
2023-05-04T18:52:51.100Z,4.90
2023-05-04T18:55:17.868Z,6.45
2023-05-04T18:57:44.505Z,4.47
2023-05-04T19:00:11.862Z,5.35
2023-05-04T19:02:38.589Z,4.10
2023-05-04T19:05:05.715Z,5.32
2023-05-04T19:07:32.342Z,3.80
2023-05-04T19:09:59.025Z,3.97
2023-05-04T19:12:25.728Z,3.55
2023-05-04T19:14:52.956Z,6.32
2023-05-04T19:17:19.589Z,4.18
2023-05-04T19:19:46.309Z,5.28
2023-05-04T19:22:15.445Z,4.18
2023-05-04T19:24:42.054Z,3.50
2023-05-04T19:27:09.502Z,4.50
2023-05-04T19:29:36.100Z,3.78
2023-05-04T19:32:11.984Z,3.75
2023-05-04T19:34:43.306Z,4.25
2023-05-04T19:37:10.122Z,3.17
2023-05-04T19:39:37.145Z,3.85
2023-05-04T19:42:03.852Z,5.82
2023-05-04T19:44:30.407Z,4.03
2023-05-04T19:46:57.146Z,4.80
2023-05-04T19:49:24.982Z,5.22
2023-05-04T19:51:51.755Z,4.88
2023-05-04T19:54:18.321Z,5.80
2023-05-04T19:56:44.988Z,4.57
2023-05-04T19:59:11.745Z,5.97
2023-05-04T20:01:38.345Z,5.63
2023-05-04T20:04:08.273Z,5.03
2023-05-04T20:06:36.003Z,7.38
2023-05-04T20:09:03.969Z,5.75
2023-05-04T20:11:30.959Z,4.30
2023-05-04T20:13:57.666Z,5.60
2023-05-04T20:16:24.415Z,5.57
2023-05-04T20:18:51.146Z,4.05
2023-05-04T20:21:17.792Z,5.13
2023-05-04T20:23:44.622Z,4.70
2023-05-04T20:26:11.842Z,5.63
2023-05-04T20:28:38.946Z,6.63
2023-05-04T20:31:05.796Z,4.18
2023-05-04T20:33:32.419Z,4.10
2023-05-04T20:35:59.170Z,3.60
2023-05-04T20:38:25.981Z,4.25
2023-05-04T20:40:52.970Z,4.15
2023-05-04T20:43:19.856Z,7.00
2023-05-04T20:45:46.718Z,5.80
2023-05-04T20:48:13.429Z,7.80
2023-05-04T20:50:40.404Z,7.22
2023-05-04T20:53:07.422Z,5.03
2023-05-04T20:55:34.342Z,6.70
2023-05-04T20:58:01.036Z,4.47
2023-05-04T21:00:27.654Z,5.20
2023-05-04T21:02:54.790Z,4.20
2023-05-04T21:05:21.605Z,6.20
2023-05-04T21:07:48.312Z,5.65
2023-05-04T21:10:15.782Z,5.32
2023-05-04T21:12:42.484Z,5.05
2023-05-04T21:15:10.269Z,5.53
2023-05-04T21:17:37.089Z,4.97
2023-05-04T21:20:04.280Z,6.32
2023-05-04T21:22:30.961Z,5.15
2023-05-04T21:24:57.692Z,7.15
2023-05-04T21:27:24.428Z,4.95
2023-05-04T21:29:51.084Z,5.53
2023-05-04T21:32:17.689Z,4.70
2023-05-04T21:34:44.478Z,5.38
2023-05-04T21:37:11.011Z,4.72
2023-05-04T21:39:37.658Z,8.10
2023-05-04T21:42:04.346Z,8.30
2023-05-04T21:44:31.063Z,4.93
2023-05-04T21:46:58.072Z,7.75
2023-05-04T21:49:24.946Z,8.40
2023-05-04T21:51:51.607Z,6.97
2023-05-04T21:54:18.313Z,8.95
2023-05-04T21:56:45.090Z,7.57
2023-05-04T21:59:12.060Z,5.05
2023-05-04T22:01:38.650Z,8.20
2023-05-04T22:04:08.525Z,7.53
2023-05-04T22:06:36.222Z,7.20
2023-05-04T22:09:02.993Z,4.43
2023-05-04T22:11:30.220Z,4.20
2023-05-04T22:13:56.908Z,3.20
2023-05-04T22:16:24.589Z,4.50
2023-05-04T22:18:51.358Z,6.70
2023-05-04T22:21:18.070Z,4.70
2023-05-04T22:23:44.785Z,3.42
2023-05-04T22:26:11.391Z,3.22
2023-05-04T22:28:37.987Z,4.13
2023-05-04T22:31:04.715Z,4.05
2023-05-04T22:33:31.360Z,3.97
2023-05-04T22:35:58.195Z,4.53
2023-05-04T22:38:24.879Z,4.50
2023-05-04T22:40:51.430Z,3.97
2023-05-04T22:43:18.170Z,3.67
2023-05-04T22:45:44.756Z,3.92
2023-05-04T22:48:11.306Z,3.45
2023-05-04T22:50:37.963Z,4.10
2023-05-04T22:53:04.653Z,4.75
2023-05-04T22:55:31.391Z,4.15
2023-05-04T22:57:58.055Z,4.03
2023-05-04T23:00:24.867Z,4.40
2023-05-04T23:02:51.556Z,7.30
2023-05-04T23:05:18.458Z,5.00
2023-05-04T23:07:45.080Z,3.45
2023-05-04T23:10:11.677Z,4.38
2023-05-04T23:12:38.470Z,4.20
2023-05-04T23:15:06.549Z,3.63
2023-05-04T23:17:34.262Z,4.63
2023-05-04T23:20:01.039Z,3.80
2023-05-04T23:22:27.916Z,4.53
2023-05-04T23:24:54.516Z,4.22
2023-05-04T23:27:21.223Z,5.28
2023-05-04T23:29:47.837Z,4.75
2023-05-04T23:32:14.444Z,7.40
2023-05-04T23:34:41.043Z,5.07
2023-05-04T23:37:07.777Z,3.67
2023-05-04T23:39:34.774Z,4.97
2023-05-04T23:42:01.450Z,3.70
2023-05-04T23:44:28.101Z,3.60
2023-05-04T23:46:54.678Z,3.45
2023-05-04T23:49:21.367Z,3.00
2023-05-04T23:51:48.007Z,4.13
2023-05-04T23:54:15.182Z,3.25
2023-05-04T23:56:42.964Z,3.10
2023-05-04T23:59:10.591Z,4.03
